createdAt,value
2023-01-27T00:02:15.948Z,0.24
2023-01-27T00:04:44.554Z,0.20
2023-01-27T00:07:13.217Z,0.14
2023-01-27T00:09:42.734Z,0.20
2023-01-27T00:12:43.199Z,0.12
2023-01-27T00:15:14.026Z,-0.05
2023-01-27T00:17:43.033Z,-0.01
2023-01-27T00:20:12.588Z,0.03
2023-01-27T00:22:58.506Z,0.03
2023-01-27T00:25:27.144Z,0.13
2023-01-27T00:27:55.757Z,0.22
2023-01-27T00:30:24.376Z,0.21
2023-01-27T00:33:10.102Z,0.05
2023-01-27T00:35:38.740Z,-0.01
2023-01-27T00:38:07.306Z,0.01
2023-01-27T00:40:35.945Z,0.04
2023-01-27T00:43:04.578Z,0.09
2023-01-27T00:45:52.645Z,0.15
2023-01-27T00:48:21.244Z,0.17
2023-01-27T00:50:49.852Z,0.25
2023-01-27T00:53:18.608Z,0.28
2023-01-27T00:55:48.514Z,0.21
2023-01-27T00:58:17.228Z,0.19
2023-01-27T01:00:46.626Z,0.24
2023-01-27T01:03:15.448Z,0.14
2023-01-27T01:05:44.015Z,0.18
2023-01-27T01:08:12.714Z,0.21
2023-01-27T01:10:41.692Z,0.09
2023-01-27T01:13:12.022Z,0.13
2023-01-27T01:15:41.119Z,0.17
2023-01-27T01:18:11.636Z,0.16
2023-01-27T01:20:44.457Z,0.29
2023-01-27T01:23:14.028Z,0.34
2023-01-27T01:25:43.446Z,0.22
2023-01-27T01:28:12.385Z,0.05
2023-01-27T01:30:41.022Z,0.00
2023-01-27T01:33:09.646Z,-0.03
2023-01-27T01:35:40.270Z,0.02
2023-01-27T01:38:08.886Z,0.09
2023-01-27T01:40:45.557Z,0.13
2023-01-27T01:43:17.530Z,0.22
2023-01-27T01:46:00.560Z,0.27
2023-01-27T01:48:57.447Z,0.32
2023-01-27T01:51:35.986Z,0.29
2023-01-27T01:54:23.105Z,0.37
2023-01-27T01:57:06.811Z,0.25
2023-01-27T01:59:50.311Z,0.26
2023-01-27T02:02:24.431Z,0.10
2023-01-27T02:04:57.773Z,0.18
2023-01-27T02:07:41.255Z,0.21
2023-01-27T02:10:09.976Z,0.09
2023-01-27T02:12:38.610Z,0.16
2023-01-27T02:15:08.710Z,0.10
2023-01-27T02:17:37.622Z,0.08
2023-01-27T02:20:45.164Z,-0.15
2023-01-27T02:23:37.199Z,0.05
2023-01-27T02:26:05.875Z,0.05
2023-01-27T02:28:34.507Z,0.24
2023-01-27T02:31:03.242Z,0.42
2023-01-27T02:33:31.934Z,0.29
2023-01-27T02:36:15.580Z,0.31
2023-01-27T02:38:54.157Z,0.21
2023-01-27T02:41:47.898Z,0.27
2023-01-27T02:44:16.591Z,0.27
2023-01-27T02:46:48.335Z,0.34
2023-01-27T02:49:17.345Z,0.19
2023-01-27T02:51:45.950Z,0.15
2023-01-27T02:54:14.641Z,0.21
2023-01-27T02:56:43.374Z,0.25
2023-01-27T02:59:11.907Z,0.20
2023-01-27T03:01:40.632Z,0.23
2023-01-27T03:04:12.012Z,0.23
2023-01-27T03:06:40.798Z,0.19
2023-01-27T03:09:09.685Z,0.24
2023-01-27T03:11:55.456Z,0.18
2023-01-27T03:14:37.539Z,0.22
2023-01-27T03:17:23.555Z,0.25
2023-01-27T03:19:53.449Z,0.16
2023-01-27T03:22:22.063Z,0.10
2023-01-27T03:24:50.606Z,0.18
2023-01-27T03:27:19.293Z,0.09
2023-01-27T03:29:57.011Z,0.24
2023-01-27T03:32:31.593Z,0.24
2023-01-27T03:35:01.570Z,0.19
2023-01-27T03:37:47.631Z,0.19
2023-01-27T03:40:34.097Z,0.24
2023-01-27T03:43:20.344Z,0.24
2023-01-27T03:46:10.127Z,0.27
2023-01-27T03:48:38.727Z,0.19
2023-01-27T03:51:09.541Z,0.06
2023-01-27T03:53:38.515Z,0.16
2023-01-27T03:56:07.461Z,0.10
2023-01-27T03:58:38.754Z,0.08
2023-01-27T04:01:14.487Z,0.15
2023-01-27T04:04:01.323Z,0.15
2023-01-27T04:06:50.640Z,0.19
2023-01-27T04:09:31.817Z,0.21
2023-01-27T04:12:02.356Z,0.25
2023-01-27T04:14:38.264Z,0.23
2023-01-27T04:17:14.172Z,0.22
2023-01-27T04:19:42.944Z,0.29
2023-01-27T04:22:13.950Z,0.22
2023-01-27T04:24:42.518Z,0.27
2023-01-27T04:27:16.750Z,0.28
2023-01-27T04:29:45.156Z,0.30
2023-01-27T04:32:14.747Z,0.24
2023-01-27T04:34:43.624Z,0.32
2023-01-27T04:37:12.350Z,0.22
2023-01-27T04:39:41.787Z,0.21
2023-01-27T04:42:10.199Z,0.21
2023-01-27T04:44:38.627Z,0.21
2023-01-27T04:47:07.030Z,0.14
2023-01-27T04:49:35.462Z,0.18
2023-01-27T04:52:03.879Z,0.16
2023-01-27T04:54:32.341Z,0.20
2023-01-27T04:57:03.957Z,0.16
2023-01-27T04:59:32.408Z,0.13
2023-01-27T05:02:00.952Z,0.09
2023-01-27T05:04:29.445Z,0.07
2023-01-27T05:06:57.862Z,0.08
2023-01-27T05:09:26.575Z,0.10
2023-01-27T05:11:55.013Z,0.12
2023-01-27T05:14:24.473Z,0.18
2023-01-27T05:16:53.020Z,0.16
2023-01-27T05:19:21.498Z,0.16
2023-01-27T05:21:49.937Z,0.11
2023-01-27T05:24:18.364Z,0.09
2023-01-27T05:26:46.838Z,0.11
2023-01-27T05:29:15.504Z,0.17
2023-01-27T05:31:43.954Z,0.21
2023-01-27T05:34:12.415Z,0.26
2023-01-27T05:36:40.817Z,0.20
2023-01-27T05:39:11.416Z,0.28
2023-01-27T05:41:40.042Z,0.26
2023-01-27T05:44:13.552Z,0.19
2023-01-27T05:46:42.638Z,0.22
2023-01-27T05:49:11.070Z,0.20
2023-01-27T05:51:41.080Z,0.14
2023-01-27T05:54:10.096Z,0.23
2023-01-27T05:56:39.246Z,0.22
2023-01-27T05:59:08.528Z,0.22
2023-01-27T06:01:37.676Z,0.27
2023-01-27T06:04:06.680Z,0.17
2023-01-27T06:06:35.459Z,0.22
2023-01-27T06:09:03.960Z,0.20
2023-01-27T06:11:32.536Z,0.24
2023-01-27T06:14:01.109Z,0.20
2023-01-27T06:16:29.601Z,0.06
2023-01-27T06:18:58.711Z,0.17
2023-01-27T06:21:27.271Z,0.20
2023-01-27T06:23:56.066Z,0.26
2023-01-27T06:26:24.749Z,0.27
2023-01-27T06:28:53.187Z,0.29
2023-01-27T06:31:23.298Z,0.34
2023-01-27T06:33:52.767Z,0.40
2023-01-27T06:36:23.992Z,0.39
2023-01-27T06:38:56.071Z,0.45
2023-01-27T06:41:24.906Z,0.43
2023-01-27T06:43:58.279Z,0.33
2023-01-27T06:46:26.866Z,0.34
2023-01-27T06:48:55.532Z,0.44
2023-01-27T06:51:24.080Z,0.42
2023-01-27T06:53:52.489Z,0.44
2023-01-27T06:56:21.048Z,0.51
2023-01-27T06:58:49.645Z,0.53
2023-01-27T07:01:18.408Z,0.46
2023-01-27T07:03:46.853Z,0.50
2023-01-27T07:06:16.260Z,0.42
2023-01-27T07:08:46.997Z,0.42
2023-01-27T07:11:15.703Z,0.53
2023-01-27T07:13:44.385Z,0.49
2023-01-27T07:16:12.832Z,0.48
2023-01-27T07:18:41.258Z,0.49
2023-01-27T07:21:09.620Z,0.40
2023-01-27T07:23:37.996Z,0.41
2023-01-27T07:26:19.218Z,0.22
2023-01-27T07:28:51.945Z,0.37
2023-01-27T07:31:20.499Z,0.40
2023-01-27T07:33:49.149Z,0.48
2023-01-27T07:36:17.605Z,0.38
2023-01-27T07:38:45.991Z,0.50
2023-01-27T07:41:14.654Z,0.63
2023-01-27T07:43:43.163Z,0.64
2023-01-27T07:46:11.590Z,0.62
2023-01-27T07:48:40.063Z,0.63
2023-01-27T07:51:12.334Z,0.70
2023-01-27T07:53:41.214Z,0.68
2023-01-27T07:56:11.993Z,0.70
2023-01-27T07:58:41.036Z,0.72
2023-01-27T08:01:14.254Z,0.74
2023-01-27T08:03:42.692Z,0.61
2023-01-27T08:06:12.903Z,0.62
2023-01-27T08:08:41.721Z,0.69
2023-01-27T08:11:14.025Z,0.73
2023-01-27T08:13:42.541Z,0.69
2023-01-27T08:16:15.320Z,0.57
2023-01-27T08:18:44.173Z,0.62
2023-01-27T08:21:14.253Z,0.53
2023-01-27T08:23:42.776Z,0.58
2023-01-27T08:26:11.235Z,0.65
2023-01-27T08:28:41.239Z,0.64
2023-01-27T08:31:16.220Z,0.70
2023-01-27T08:33:47.518Z,0.72
2023-01-27T08:36:18.430Z,0.74
2023-01-27T08:38:49.259Z,0.70
2023-01-27T08:41:26.632Z,0.69
2023-01-27T08:43:56.396Z,0.81
2023-01-27T08:46:25.143Z,0.84
2023-01-27T08:48:53.627Z,0.91
2023-01-27T08:51:22.052Z,0.99
2023-01-27T08:53:50.492Z,1.10
2023-01-27T08:56:18.940Z,1.17
2023-01-27T08:58:48.582Z,1.13
2023-01-27T09:01:17.735Z,0.96
2023-01-27T09:03:46.615Z,0.98
2023-01-27T09:06:15.486Z,0.99
2023-01-27T09:08:44.798Z,1.04
2023-01-27T09:11:16.794Z,1.06
2023-01-27T09:13:45.651Z,0.98
2023-01-27T09:16:14.073Z,1.08
2023-01-27T09:18:42.480Z,1.24
2023-01-27T09:21:11.624Z,1.35
2023-01-27T09:23:40.016Z,1.37
2023-01-27T09:26:08.399Z,1.39
2023-01-27T09:28:36.847Z,1.48
2023-01-27T09:31:05.518Z,1.57
2023-01-27T09:33:34.232Z,1.62
2023-01-27T09:36:22.655Z,1.44
2023-01-27T09:39:01.639Z,1.44
2023-01-27T09:42:02.147Z,1.43
2023-01-27T09:44:50.265Z,1.41
2023-01-27T09:48:06.646Z,1.50
2023-01-27T09:50:46.384Z,1.53
2023-01-27T09:53:36.366Z,1.63
2023-01-27T09:56:24.419Z,1.65
2023-01-27T09:59:32.617Z,1.59
2023-01-27T10:02:53.516Z,1.58
2023-01-27T10:05:30.776Z,1.58
2023-01-27T10:08:28.722Z,1.68
2023-01-27T10:11:50.175Z,1.79
2023-01-27T10:15:00.562Z,1.86
2023-01-27T10:17:45.099Z,1.79
2023-01-27T10:20:36.038Z,1.76
2023-01-27T10:23:54.725Z,1.79
2023-01-27T10:26:53.076Z,1.87
2023-01-27T10:29:36.079Z,1.84
2023-01-27T10:32:29.080Z,1.92
2023-01-27T10:35:00.283Z,1.88
2023-01-27T10:38:24.532Z,1.87
2023-01-27T10:41:05.350Z,1.77
2023-01-27T10:43:44.180Z,1.73
2023-01-27T10:46:12.715Z,1.73
2023-01-27T10:48:48.645Z,1.76
2023-01-27T10:51:34.614Z,1.90
2023-01-27T10:54:15.577Z,1.93
2023-01-27T10:57:07.529Z,1.95
2023-01-27T11:00:46.511Z,1.85
2023-01-27T11:03:00.435Z,1.93
2023-01-27T11:05:43.836Z,1.90
2023-01-27T11:08:20.518Z,1.77
2023-01-27T11:11:12.795Z,1.82
2023-01-27T11:13:41.973Z,1.89
2023-01-27T11:16:21.540Z,1.89
2023-01-27T11:19:02.115Z,1.94
2023-01-27T11:21:32.812Z,1.97
2023-01-27T11:24:23.144Z,2.02
2023-01-27T11:27:04.020Z,1.96
2023-01-27T11:29:50.319Z,2.05
2023-01-27T11:32:49.816Z,2.10
2023-01-27T11:35:18.609Z,2.21
2023-01-27T11:37:54.826Z,2.29
2023-01-27T11:40:35.511Z,2.37
2023-01-27T11:43:05.082Z,2.31
2023-01-27T11:45:37.523Z,2.20
2023-01-27T11:48:14.287Z,2.17
2023-01-27T11:50:44.624Z,2.08
2023-01-27T11:53:36.808Z,2.23
2023-01-27T11:56:11.443Z,2.31
2023-01-27T11:59:02.793Z,2.21
2023-01-27T12:01:58.263Z,2.26
2023-01-27T12:04:49.389Z,2.33
2023-01-27T12:07:58.061Z,2.39
2023-01-27T12:10:38.877Z,2.40
2023-01-27T12:13:18.959Z,2.42
2023-01-27T12:16:03.661Z,2.50
2023-01-27T12:18:36.952Z,2.42
2023-01-27T12:21:10.493Z,2.46
2023-01-27T12:23:49.140Z,2.43
2023-01-27T12:26:17.923Z,2.43
2023-01-27T12:28:56.363Z,2.43
2023-01-27T12:31:30.233Z,2.49
2023-01-27T12:34:05.843Z,2.40
2023-01-27T12:36:44.031Z,2.46
2023-01-27T12:39:57.156Z,2.47
2023-01-27T12:42:44.415Z,2.47
2023-01-27T12:45:31.415Z,2.55
2023-01-27T12:48:02.754Z,2.46
2023-01-27T12:50:35.095Z,2.54
2023-01-27T12:53:14.001Z,2.58
2023-01-27T12:56:01.176Z,2.55
2023-01-27T12:58:37.838Z,2.55
2023-01-27T13:01:36.450Z,2.55
2023-01-27T13:04:06.052Z,2.50
2023-01-27T13:06:34.678Z,2.52
2023-01-27T13:09:04.591Z,2.52
2023-01-27T13:11:38.649Z,2.49
2023-01-27T13:14:14.393Z,2.53
2023-01-27T13:16:42.987Z,2.60
2023-01-27T13:19:19.566Z,2.72
2023-01-27T13:21:55.266Z,2.73
2023-01-27T13:24:40.696Z,2.75
2023-01-27T13:27:18.019Z,2.81
2023-01-27T13:29:59.113Z,2.87
2023-01-27T13:32:32.385Z,2.90
2023-01-27T13:35:27.580Z,2.82
2023-01-27T13:38:03.602Z,2.82
2023-01-27T13:40:46.704Z,2.85
2023-01-27T13:43:41.654Z,2.87
2023-01-27T13:46:35.355Z,2.81
2023-01-27T13:49:39.260Z,2.92
2023-01-27T13:52:08.266Z,2.88
2023-01-27T13:54:36.809Z,2.89
2023-01-27T13:57:36.582Z,2.90
2023-01-27T14:00:32.024Z,2.87
2023-01-27T14:03:19.193Z,2.89
2023-01-27T14:06:30.294Z,3.02
2023-01-27T14:09:43.161Z,2.97
2023-01-27T14:12:55.757Z,2.94
2023-01-27T14:15:50.529Z,2.92
2023-01-27T14:18:46.167Z,2.85
2023-01-27T14:21:45.435Z,2.78
2023-01-27T14:24:47.569Z,2.71
2023-01-27T14:27:19.243Z,2.75
2023-01-27T14:29:50.902Z,2.74
2023-01-27T14:32:33.631Z,2.81
2023-01-27T14:35:23.241Z,2.79
2023-01-27T14:38:12.079Z,2.73
2023-01-27T14:41:10.411Z,2.82
2023-01-27T14:44:07.372Z,2.92
2023-01-27T14:47:06.134Z,2.84
2023-01-27T14:49:54.422Z,2.79
2023-01-27T14:52:44.313Z,2.83
2023-01-27T14:55:40.759Z,2.84
2023-01-27T14:58:58.202Z,2.69
2023-01-27T15:01:53.269Z,2.68
2023-01-27T15:04:30.819Z,2.71
2023-01-27T15:07:17.010Z,2.82
2023-01-27T15:10:27.313Z,2.85
2023-01-27T15:13:19.538Z,2.92
2023-01-27T15:16:46.827Z,2.88
2023-01-27T15:19:37.470Z,2.72
2023-01-27T15:22:11.853Z,2.77
2023-01-27T15:25:27.753Z,2.79
2023-01-27T15:27:56.561Z,2.74
2023-01-27T15:30:34.584Z,2.68
2023-01-27T15:33:03.206Z,2.67
2023-01-27T15:35:34.703Z,2.68
2023-01-27T15:38:33.873Z,2.74
2023-01-27T15:41:08.904Z,2.70
2023-01-27T15:43:44.762Z,2.75
2023-01-27T15:46:45.084Z,2.75
2023-01-27T15:49:22.710Z,2.77
2023-01-27T15:51:55.608Z,2.80
2023-01-27T15:54:33.266Z,2.82
2023-01-27T15:57:06.417Z,2.82
2023-01-27T15:59:58.790Z,2.81
2023-01-27T16:02:33.640Z,2.84
2023-01-27T16:05:45.817Z,2.88
2023-01-27T16:08:17.433Z,2.82
2023-01-27T16:10:46.493Z,2.87
2023-01-27T16:13:28.823Z,2.86
2023-01-27T16:16:19.138Z,2.85
2023-01-27T16:18:54.135Z,2.86
2023-01-27T16:21:58.553Z,2.92
2023-01-27T16:24:52.968Z,2.87
2023-01-27T16:27:40.411Z,2.90
2023-01-27T16:30:24.189Z,2.94
2023-01-27T16:33:16.171Z,2.89
2023-01-27T16:35:54.550Z,2.79
2023-01-27T16:38:34.538Z,2.86
2023-01-27T16:41:09.897Z,2.79
2023-01-27T16:43:52.647Z,2.85
2023-01-27T16:46:37.787Z,2.87
2023-01-27T16:49:40.704Z,2.88
2023-01-27T16:52:40.738Z,2.91
2023-01-27T16:55:22.980Z,2.94
2023-01-27T16:57:52.621Z,2.95
2023-01-27T17:00:27.204Z,3.00
2023-01-27T17:02:59.280Z,3.02
2023-01-27T17:05:28.580Z,2.95
2023-01-27T17:08:14.897Z,3.03
2023-01-27T17:10:57.558Z,3.03
2023-01-27T17:13:45.716Z,3.01
2023-01-27T17:16:34.473Z,3.00
2023-01-27T17:19:25.875Z,3.13
2023-01-27T17:22:01.589Z,3.11
2023-01-27T17:24:49.852Z,3.13
2023-01-27T17:27:27.884Z,3.23
2023-01-27T17:30:24.316Z,3.17
2023-01-27T17:32:59.115Z,3.19
2023-01-27T17:35:33.091Z,3.11
2023-01-27T17:38:25.570Z,3.06
2023-01-27T17:40:56.394Z,3.05
2023-01-27T17:43:36.747Z,3.12
2023-01-27T17:46:20.579Z,3.05
2023-01-27T17:49:05.042Z,3.05
2023-01-27T17:51:45.484Z,3.04
2023-01-27T17:54:41.504Z,3.04
2023-01-27T17:57:32.435Z,3.12
2023-01-27T18:00:11.480Z,3.09
2023-01-27T18:02:57.213Z,3.11
2023-01-27T18:05:31.698Z,3.08
2023-01-27T18:08:00.729Z,2.87
2023-01-27T18:10:35.033Z,2.95
2023-01-27T18:13:21.689Z,3.02
2023-01-27T18:16:13.297Z,2.97
2023-01-27T18:18:41.988Z,2.87
2023-01-27T18:21:10.667Z,2.99
2023-01-27T18:23:45.554Z,2.99
2023-01-27T18:26:24.842Z,2.98
2023-01-27T18:29:03.835Z,2.97
2023-01-27T18:31:57.521Z,3.06
2023-01-27T18:34:30.197Z,3.06
2023-01-27T18:37:07.285Z,3.06
2023-01-27T18:39:43.572Z,3.00
2023-01-27T18:42:21.516Z,3.03
2023-01-27T18:44:54.715Z,2.93
2023-01-27T18:47:28.755Z,2.90
2023-01-27T18:49:57.402Z,2.92
2023-01-27T18:52:26.224Z,2.91
2023-01-27T18:55:12.699Z,2.86
2023-01-27T18:57:41.458Z,2.87
2023-01-27T19:00:13.546Z,2.85
2023-01-27T19:02:46.670Z,2.98
2023-01-27T19:05:23.150Z,2.94
2023-01-27T19:07:53.140Z,2.88
2023-01-27T19:10:30.018Z,2.74
2023-01-27T19:13:01.780Z,2.77
2023-01-27T19:15:35.997Z,2.81
2023-01-27T19:18:23.053Z,2.88
2023-01-27T19:20:53.317Z,2.78
2023-01-27T19:23:23.311Z,2.87
2023-01-27T19:25:56.266Z,2.81
2023-01-27T19:28:38.152Z,2.84
2023-01-27T19:31:08.112Z,2.83
2023-01-27T19:33:38.763Z,2.86
2023-01-27T19:36:13.006Z,2.94
2023-01-27T19:38:41.811Z,2.96
2023-01-27T19:41:10.948Z,2.94
2023-01-27T19:43:40.470Z,2.92
2023-01-27T19:46:17.849Z,2.91
2023-01-27T19:48:46.572Z,2.94
2023-01-27T19:51:17.440Z,2.94
2023-01-27T19:53:46.579Z,2.97
2023-01-27T19:56:21.825Z,2.93
2023-01-27T19:58:54.081Z,2.88
2023-01-27T20:01:25.680Z,2.93
2023-01-27T20:03:55.318Z,3.00
2023-01-27T20:06:29.881Z,2.92
2023-01-27T20:09:00.420Z,3.00
2023-01-27T20:11:41.284Z,2.85
2023-01-27T20:14:20.485Z,2.87
2023-01-27T20:16:49.923Z,2.87
2023-01-27T20:19:18.834Z,2.92
2023-01-27T20:21:48.374Z,2.91
2023-01-27T20:24:19.717Z,2.95
2023-01-27T20:26:49.051Z,2.96
2023-01-27T20:29:17.750Z,3.01
2023-01-27T20:31:46.773Z,2.96
2023-01-27T20:34:15.619Z,2.89
2023-01-27T20:36:44.231Z,2.95
2023-01-27T20:39:13.109Z,2.87
2023-01-27T20:41:41.751Z,2.83
2023-01-27T20:44:13.474Z,2.77
2023-01-27T20:46:42.269Z,2.89
2023-01-27T20:49:11.340Z,2.84
2023-01-27T20:51:40.162Z,2.88
2023-01-27T20:54:08.896Z,2.86
2023-01-27T20:56:37.714Z,2.85
2023-01-27T20:59:06.485Z,2.83
2023-01-27T21:01:35.737Z,2.78
2023-01-27T21:04:04.454Z,2.75
2023-01-27T21:06:33.650Z,2.77
2023-01-27T21:09:02.717Z,2.95
2023-01-27T21:11:31.958Z,2.77
2023-01-27T21:14:01.377Z,2.80
2023-01-27T21:16:30.056Z,2.78
2023-01-27T21:18:58.796Z,2.78
2023-01-27T21:21:30.578Z,2.77
2023-01-27T21:24:01.273Z,2.65
2023-01-27T21:26:29.982Z,2.64
2023-01-27T21:28:59.099Z,2.70
2023-01-27T21:31:30.595Z,2.83
2023-01-27T21:34:01.193Z,2.70
2023-01-27T21:36:29.966Z,2.70
2023-01-27T21:38:58.891Z,2.73
2023-01-27T21:41:45.410Z,2.73
2023-01-27T21:44:41.738Z,2.78
2023-01-27T21:47:16.984Z,2.81
2023-01-27T21:50:03.135Z,2.72
2023-01-27T21:52:49.893Z,2.79
2023-01-27T21:55:30.651Z,2.83
2023-01-27T21:57:59.388Z,2.87
2023-01-27T22:00:29.801Z,2.80
2023-01-27T22:03:04.548Z,2.76
2023-01-27T22:05:35.098Z,2.75
2023-01-27T22:08:06.471Z,2.68
2023-01-27T22:10:35.368Z,2.58
2023-01-27T22:13:05.715Z,2.66
2023-01-27T22:15:34.586Z,2.61
2023-01-27T22:18:03.167Z,2.67
2023-01-27T22:20:31.858Z,2.69
2023-01-27T22:23:00.581Z,2.70
2023-01-27T22:25:29.196Z,2.61
2023-01-27T22:27:57.850Z,2.63
2023-01-27T22:30:26.575Z,2.67
2023-01-27T22:32:55.213Z,2.62
2023-01-27T22:35:23.922Z,2.40
2023-01-27T22:37:53.179Z,2.51
2023-01-27T22:40:21.854Z,2.48
2023-01-27T22:42:51.077Z,2.58
2023-01-27T22:45:19.801Z,2.40
2023-01-27T22:47:49.605Z,2.37
2023-01-27T22:50:18.412Z,2.46
2023-01-27T22:52:47.954Z,2.43
2023-01-27T22:55:16.900Z,2.33
2023-01-27T22:57:47.884Z,2.38
2023-01-27T23:00:16.925Z,2.40
2023-01-27T23:02:45.548Z,2.37
2023-01-27T23:05:14.435Z,2.43
2023-01-27T23:07:43.325Z,2.36
2023-01-27T23:10:12.249Z,2.36
2023-01-27T23:12:40.976Z,2.45
2023-01-27T23:15:10.021Z,2.36
2023-01-27T23:17:38.782Z,2.32
2023-01-27T23:20:08.081Z,2.26
2023-01-27T23:22:36.749Z,2.26
2023-01-27T23:25:05.660Z,2.26
2023-01-27T23:27:35.265Z,2.22
2023-01-27T23:30:03.994Z,2.26
2023-01-27T23:32:32.691Z,2.24
2023-01-27T23:35:01.263Z,2.08
2023-01-27T23:37:29.914Z,2.18
2023-01-27T23:39:58.506Z,2.19
2023-01-27T23:42:27.041Z,2.34
2023-01-27T23:44:55.619Z,2.23
2023-01-27T23:47:24.270Z,2.23
2023-01-27T23:49:52.888Z,2.25
2023-01-27T23:52:21.458Z,2.29
2023-01-27T23:54:50.166Z,2.33
2023-01-27T23:57:19.024Z,2.23
2023-01-27T23:59:47.729Z,2.25
